createdAt,value
2022-11-28T00:01:35.671Z,101455.59
2022-11-28T00:04:03.900Z,101449.59
2022-11-28T00:06:31.358Z,101446.09
2022-11-28T00:08:59.952Z,101438.28
2022-11-28T00:11:27.160Z,101432.19
2022-11-28T00:13:54.942Z,101426.97
2022-11-28T00:16:23.458Z,101426.97
2022-11-28T00:18:51.998Z,101423.47
2022-11-28T00:21:19.920Z,101427.84
2022-11-28T00:23:47.856Z,101426.13
2022-11-28T00:26:21.554Z,101423.50
2022-11-28T00:28:50.161Z,101424.38
2022-11-28T00:31:20.310Z,101429.59
2022-11-28T00:33:47.608Z,101424.34
2022-11-28T00:36:15.304Z,101424.38
2022-11-28T00:38:42.817Z,101426.97
2022-11-28T00:41:18.588Z,101421.78
2022-11-28T00:43:46.714Z,101420.88
2022-11-28T00:46:15.541Z,101413.97
2022-11-28T00:48:43.042Z,101415.66
2022-11-28T00:51:13.379Z,101412.19
2022-11-28T00:53:42.630Z,101415.66
2022-11-28T00:56:12.020Z,101414.81
2022-11-28T00:58:39.333Z,101407.84
2022-11-28T01:01:12.556Z,101406.97
2022-11-28T01:03:40.545Z,101404.38
2022-11-28T01:06:09.091Z,101402.63
2022-11-28T01:08:37.028Z,101400.88
2022-11-28T01:11:04.772Z,101394.84
2022-11-28T01:13:32.051Z,101392.22
2022-11-28T01:15:59.393Z,101398.31
2022-11-28T01:18:26.695Z,101394.81
2022-11-28T01:20:53.995Z,101383.53
2022-11-28T01:23:21.243Z,101376.56
2022-11-28T01:25:48.438Z,101384.31
2022-11-28T01:28:15.775Z,101376.53
2022-11-28T01:30:43.032Z,101369.56
2022-11-28T01:33:10.306Z,101373.03
2022-11-28T01:35:37.530Z,101378.25
2022-11-28T01:38:04.759Z,101364.34
2022-11-28T01:40:32.250Z,101366.06
2022-11-28T01:42:59.431Z,101367.81
2022-11-28T01:45:30.410Z,101367.81
2022-11-28T01:48:00.895Z,101363.47
2022-11-28T01:50:29.905Z,101366.94
2022-11-28T01:53:00.412Z,101360.84
2022-11-28T01:55:30.817Z,101362.56
2022-11-28T01:57:58.306Z,101349.59
2022-11-28T02:00:25.643Z,101352.16
2022-11-28T02:03:03.688Z,101346.13
2022-11-28T02:05:30.910Z,101339.16
2022-11-28T02:07:58.186Z,101332.22
2022-11-28T02:10:37.010Z,101329.59
2022-11-28T02:13:30.838Z,101328.72
2022-11-28T02:16:06.910Z,101318.34
2022-11-28T02:18:50.797Z,101323.53
2022-11-28T02:21:18.417Z,101319.22
2022-11-28T02:24:13.489Z,101329.63
2022-11-28T02:26:43.405Z,101320.91
2022-11-28T02:29:16.643Z,101319.13
2022-11-28T02:32:10.808Z,101320.03
2022-11-28T02:34:57.946Z,101317.41
2022-11-28T02:37:36.311Z,101307.00
2022-11-28T02:40:24.012Z,101316.53
2022-11-28T02:43:04.724Z,101306.13
2022-11-28T02:45:35.671Z,101305.28
2022-11-28T02:48:05.403Z,101309.63
2022-11-28T02:50:42.089Z,101299.19
2022-11-28T02:53:19.110Z,101299.19
2022-11-28T02:55:46.908Z,101302.66
2022-11-28T02:58:14.267Z,101300.91
2022-11-28T03:00:44.974Z,101300.06
2022-11-28T03:03:38.387Z,101299.19
2022-11-28T03:06:28.575Z,101296.56
2022-11-28T03:09:06.595Z,101294.88
2022-11-28T03:11:58.463Z,101293.94
2022-11-28T03:14:40.910Z,101289.63
2022-11-28T03:17:27.930Z,101283.56
2022-11-28T03:20:07.514Z,101278.34
2022-11-28T03:22:48.054Z,101274.00
2022-11-28T03:25:21.016Z,101268.75
2022-11-28T03:27:54.312Z,101273.06
2022-11-28T03:30:28.362Z,101269.56
2022-11-28T03:32:56.833Z,101263.47
2022-11-28T03:35:27.565Z,101261.75
2022-11-28T03:38:07.231Z,101266.09
2022-11-28T03:40:42.117Z,101264.28
2022-11-28T03:43:13.925Z,101263.38
2022-11-28T03:45:53.463Z,101260.78
2022-11-28T03:48:26.452Z,101262.50
2022-11-28T03:51:05.771Z,101253.84
2022-11-28T03:53:38.119Z,101255.53
2022-11-28T03:56:24.687Z,101252.91
2022-11-28T03:58:59.979Z,101255.56
2022-11-28T04:01:53.776Z,101252.13
2022-11-28T04:04:48.763Z,101247.75
2022-11-28T04:07:31.683Z,101240.84
2022-11-28T04:10:06.356Z,101238.28
2022-11-28T04:13:08.723Z,101237.41
2022-11-28T04:15:44.748Z,101238.31
2022-11-28T04:18:49.338Z,101234.00
2022-11-28T04:21:33.530Z,101228.78
2022-11-28T04:24:04.631Z,101227.06
2022-11-28T04:26:37.714Z,101221.00
2022-11-28T04:29:10.064Z,101218.38
2022-11-28T04:31:39.284Z,101219.31
2022-11-28T04:34:08.920Z,101219.31
2022-11-28T04:36:38.645Z,101223.66
2022-11-28T04:39:08.255Z,101229.72
2022-11-28T04:41:42.538Z,101222.84
2022-11-28T04:44:26.025Z,101221.09
2022-11-28T04:46:54.596Z,101214.19
2022-11-28T04:49:23.274Z,101216.81
2022-11-28T04:51:59.337Z,101215.09
2022-11-28T04:54:51.746Z,101226.38
2022-11-28T04:57:25.680Z,101219.47
2022-11-28T04:59:53.549Z,101204.72
2022-11-28T05:02:21.863Z,101209.06
2022-11-28T05:04:49.135Z,101209.94
2022-11-28T05:07:16.347Z,101215.13
2022-11-28T05:09:43.587Z,101204.72
2022-11-28T05:12:10.891Z,101210.81
2022-11-28T05:14:38.118Z,101216.88
2022-11-28T05:17:05.395Z,101214.28
2022-11-28T05:19:32.647Z,101210.84
2022-11-28T05:21:59.981Z,101213.44
2022-11-28T05:24:32.048Z,101215.16
2022-11-28T05:26:59.714Z,101208.25
2022-11-28T05:29:27.034Z,101208.25
2022-11-28T05:31:54.604Z,101199.56
2022-11-28T05:34:21.978Z,101196.94
2022-11-28T05:36:49.154Z,101187.41
2022-11-28T05:39:16.459Z,101187.44
2022-11-28T05:41:43.655Z,101177.03
2022-11-28T05:44:11.178Z,101173.53
2022-11-28T05:46:38.427Z,101170.94
2022-11-28T05:49:05.751Z,101171.81
2022-11-28T05:51:33.272Z,101164.88
2022-11-28T05:54:00.506Z,101165.72
2022-11-28T05:56:27.684Z,101159.63
2022-11-28T05:58:55.215Z,101160.53
2022-11-28T06:01:24.745Z,101157.03
2022-11-28T06:03:58.025Z,101147.50
2022-11-28T06:06:25.558Z,101139.72
2022-11-28T06:08:53.162Z,101141.44
2022-11-28T06:11:22.018Z,101137.13
2022-11-28T06:13:49.646Z,101143.19
2022-11-28T06:16:22.569Z,101141.47
2022-11-28T06:18:53.834Z,101131.03
2022-11-28T06:21:21.288Z,101133.66
2022-11-28T06:23:48.510Z,101128.41
2022-11-28T06:26:17.970Z,101132.78
2022-11-28T06:28:45.119Z,101133.63
2022-11-28T06:31:17.205Z,101138.81
2022-11-28T06:33:44.560Z,101131.91
2022-11-28T06:36:13.371Z,101137.09
2022-11-28T06:38:40.764Z,101139.72
2022-11-28T06:41:10.625Z,101135.34
2022-11-28T06:43:37.988Z,101135.38
2022-11-28T06:46:05.642Z,101137.97
2022-11-28T06:48:32.971Z,101142.31
2022-11-28T06:51:07.560Z,101147.50
2022-11-28T06:53:36.138Z,101137.09
2022-11-28T06:56:08.344Z,101129.31
2022-11-28T06:58:35.816Z,101132.75
2022-11-28T07:01:16.475Z,101130.19
2022-11-28T07:03:44.646Z,101131.91
2022-11-28T07:06:12.754Z,101137.09
2022-11-28T07:08:40.375Z,101141.41
2022-11-28T07:11:18.961Z,101127.53
2022-11-28T07:13:47.160Z,101126.69
2022-11-28T07:16:16.580Z,101134.50
2022-11-28T07:18:44.487Z,101124.06
2022-11-28T07:21:12.563Z,101126.69
2022-11-28T07:23:39.818Z,101124.94
2022-11-28T07:26:08.209Z,101124.97
2022-11-28T07:28:35.658Z,101125.81
2022-11-28T07:31:05.441Z,101117.13
2022-11-28T07:33:32.872Z,101120.63
2022-11-28T07:36:01.989Z,101120.63
2022-11-28T07:38:29.514Z,101123.25
2022-11-28T07:41:02.175Z,101129.28
2022-11-28T07:43:29.428Z,101120.63
2022-11-28T07:46:00.866Z,101121.50
2022-11-28T07:48:28.746Z,101113.72
2022-11-28T07:50:55.964Z,101120.63
2022-11-28T07:53:23.222Z,101110.22
2022-11-28T07:55:50.620Z,101116.31
2022-11-28T07:58:17.938Z,101122.38
2022-11-28T08:00:45.190Z,101112.84
2022-11-28T08:03:12.380Z,101119.78
2022-11-28T08:05:39.600Z,101109.34
2022-11-28T08:08:06.990Z,101110.25
2022-11-28T08:10:34.245Z,101116.28
2022-11-28T08:13:01.532Z,101112.84
2022-11-28T08:15:31.678Z,101115.44
2022-11-28T08:17:58.958Z,101114.56
2022-11-28T08:20:26.180Z,101106.75
2022-11-28T08:22:53.468Z,101107.63
2022-11-28T08:25:20.627Z,101105.88
2022-11-28T08:27:47.953Z,101105.00
2022-11-28T08:30:15.699Z,101106.75
2022-11-28T08:32:42.920Z,101112.81
2022-11-28T08:35:10.224Z,101097.19
2022-11-28T08:37:37.443Z,101100.63
2022-11-28T08:40:05.036Z,101105.00
2022-11-28T08:42:32.280Z,101110.19
2022-11-28T08:44:59.472Z,101111.03
2022-11-28T08:47:27.047Z,101124.94
2022-11-28T08:49:54.227Z,101120.59
2022-11-28T08:52:22.157Z,101124.06
2022-11-28T08:54:49.395Z,101129.28
2022-11-28T08:57:16.580Z,101140.53
2022-11-28T08:59:43.972Z,101126.66
2022-11-28T09:02:12.587Z,101124.03
2022-11-28T09:04:39.842Z,101128.38
2022-11-28T09:07:07.061Z,101125.75
2022-11-28T09:09:34.232Z,101120.56
2022-11-28T09:12:01.551Z,101116.19
2022-11-28T09:14:28.924Z,101113.56
2022-11-28T09:16:56.229Z,101116.19
2022-11-28T09:19:24.596Z,101114.41
2022-11-28T09:21:57.349Z,101113.53
2022-11-28T09:24:25.093Z,101111.75
2022-11-28T09:26:52.376Z,101113.50
2022-11-28T09:29:19.633Z,101101.31
2022-11-28T09:31:47.706Z,101092.66
2022-11-28T09:34:15.228Z,101098.72
2022-11-28T09:36:42.486Z,101110.81
2022-11-28T09:39:09.687Z,101117.75
2022-11-28T09:41:59.717Z,101127.34
2022-11-28T09:44:38.230Z,101125.56
2022-11-28T09:47:12.039Z,101122.06
2022-11-28T09:49:52.128Z,101128.16
2022-11-28T09:52:31.655Z,101130.81
2022-11-28T09:55:41.207Z,101130.00
2022-11-28T09:58:26.676Z,101116.06
2022-11-28T10:01:05.615Z,101106.47
2022-11-28T10:03:37.565Z,101100.38
2022-11-28T10:06:17.617Z,101102.94
2022-11-28T10:09:06.377Z,101095.97
2022-11-28T10:12:08.182Z,101089.00
2022-11-28T10:14:55.034Z,101086.44
2022-11-28T10:17:44.184Z,101091.56
2022-11-28T10:20:23.999Z,101088.06
2022-11-28T10:22:53.809Z,101083.72
2022-11-28T10:25:39.399Z,101081.91
2022-11-28T10:28:10.155Z,101087.13
2022-11-28T10:30:40.858Z,101079.31
2022-11-28T10:33:25.813Z,101083.63
2022-11-28T10:35:58.410Z,101076.72
2022-11-28T10:38:31.912Z,101079.22
2022-11-28T10:41:07.351Z,101070.53
2022-11-28T10:43:51.861Z,101070.53
2022-11-28T10:46:31.493Z,101072.28
2022-11-28T10:49:25.088Z,101070.47
2022-11-28T10:52:15.826Z,101081.75
2022-11-28T10:55:19.083Z,101077.28
2022-11-28T10:58:02.657Z,101070.31
2022-11-28T11:00:30.022Z,101080.69
2022-11-28T11:02:59.301Z,101071.94
2022-11-28T11:05:29.412Z,101077.97
2022-11-28T11:08:03.129Z,101075.31
2022-11-28T11:10:41.836Z,101077.09
2022-11-28T11:13:23.686Z,101076.28
2022-11-28T11:16:04.225Z,101069.31
2022-11-28T11:18:34.949Z,101070.13
2022-11-28T11:21:10.636Z,101072.78
2022-11-28T11:23:38.659Z,101073.66
2022-11-28T11:26:10.401Z,101064.88
2022-11-28T11:28:41.987Z,101069.38
2022-11-28T11:31:22.671Z,101065.03
2022-11-28T11:34:03.488Z,101058.03
2022-11-28T11:36:33.188Z,101065.06
2022-11-28T11:39:11.084Z,101055.56
2022-11-28T11:41:40.385Z,101045.06
2022-11-28T11:44:20.542Z,101044.09
2022-11-28T11:47:01.738Z,101040.59
2022-11-28T11:49:44.407Z,101030.22
2022-11-28T11:52:21.706Z,101029.25
2022-11-28T11:54:57.331Z,101030.03
2022-11-28T11:57:37.448Z,101024.97
2022-11-28T12:00:22.908Z,101030.19
2022-11-28T12:02:59.744Z,101030.13
2022-11-28T12:05:38.207Z,101030.13
2022-11-28T12:08:34.672Z,101016.25
2022-11-28T12:11:12.751Z,101024.09
2022-11-28T12:13:40.008Z,101016.28
2022-11-28T12:16:38.320Z,101010.09
2022-11-28T12:19:31.809Z,101020.50
2022-11-28T12:22:36.030Z,101019.63
2022-11-28T12:25:22.298Z,101021.38
2022-11-28T12:27:56.784Z,101015.19
2022-11-28T12:30:55.339Z,101017.03
2022-11-28T12:33:47.356Z,101013.50
2022-11-28T12:36:37.185Z,101016.19
2022-11-28T12:39:21.543Z,101011.88
2022-11-28T12:42:13.111Z,101004.81
2022-11-28T12:45:18.764Z,101005.63
2022-11-28T12:48:14.810Z,101004.81
2022-11-28T12:50:49.271Z,101001.34
2022-11-28T12:53:30.523Z,100994.28
2022-11-28T12:56:19.354Z,100999.59
2022-11-28T12:59:06.983Z,100999.66
2022-11-28T13:01:45.796Z,100982.19
2022-11-28T13:04:41.516Z,100993.53
2022-11-28T13:07:26.730Z,100982.16
2022-11-28T13:10:19.447Z,100972.66
2022-11-28T13:12:59.039Z,100972.63
2022-11-28T13:15:38.738Z,100966.59
2022-11-28T13:18:06.218Z,100965.66
2022-11-28T13:20:56.072Z,100961.25
2022-11-28T13:23:36.099Z,100968.28
2022-11-28T13:26:17.313Z,100972.59
2022-11-28T13:28:58.096Z,100969.09
2022-11-28T13:31:27.503Z,100978.66
2022-11-28T13:33:54.964Z,100969.16
2022-11-28T13:39:49.299Z,100954.28
2022-11-28T13:42:58.845Z,100949.91
2022-11-28T13:45:32.588Z,100949.03
2022-11-28T13:48:01.212Z,100951.63
2022-11-28T13:50:32.364Z,100952.59
2022-11-28T13:53:07.624Z,100946.53
2022-11-28T13:55:40.753Z,100944.78
2022-11-28T13:58:49.148Z,100940.47
2022-11-28T14:01:18.331Z,100937.78
2022-11-28T14:04:11.946Z,100935.19
2022-11-28T14:06:47.413Z,100935.25
2022-11-28T14:09:17.599Z,100943.91
2022-11-28T14:11:57.079Z,100953.50
2022-11-28T14:14:40.683Z,100950.94
2022-11-28T14:17:37.300Z,100954.44
2022-11-28T14:20:36.546Z,100963.13
2022-11-28T14:23:22.565Z,100964.91
2022-11-28T14:25:51.608Z,100968.38
2022-11-28T14:28:25.667Z,100981.41
2022-11-28T14:31:09.828Z,100981.44
2022-11-28T14:33:44.675Z,100991.88
2022-11-28T14:36:36.538Z,100981.38
2022-11-28T14:39:15.878Z,100986.59
2022-11-28T14:42:01.953Z,100984.06
2022-11-28T14:45:06.462Z,100983.28
2022-11-28T14:47:39.506Z,100974.59
2022-11-28T14:50:09.354Z,100984.16
2022-11-28T14:52:47.935Z,100978.06
2022-11-28T14:55:27.636Z,100980.69
2022-11-28T14:57:55.029Z,100983.28
2022-11-28T15:00:27.971Z,100985.13
2022-11-28T15:03:15.805Z,100985.19
2022-11-28T15:06:25.317Z,100987.78
2022-11-28T15:09:01.930Z,100993.91
2022-11-28T15:11:41.366Z,100992.19
2022-11-28T15:14:10.153Z,100995.69
2022-11-28T15:16:48.449Z,101000.00
2022-11-28T15:19:36.665Z,101001.78
2022-11-28T15:22:06.366Z,100991.34
2022-11-28T15:24:35.457Z,100993.09
2022-11-28T15:27:08.737Z,100990.47
2022-11-28T15:29:36.722Z,100993.13
2022-11-28T15:32:04.351Z,100986.19
2022-11-28T15:34:34.716Z,100989.69
2022-11-28T15:37:07.143Z,100993.13
2022-11-28T15:39:40.505Z,100990.50
2022-11-28T15:42:28.847Z,100991.38
2022-11-28T15:45:30.983Z,100987.91
2022-11-28T15:47:58.856Z,100993.16
2022-11-28T15:50:29.289Z,100993.16
2022-11-28T15:53:01.837Z,100992.25
2022-11-28T15:55:31.239Z,100990.53
2022-11-28T15:58:18.430Z,100994.03
2022-11-28T16:00:49.292Z,101000.09
2022-11-28T16:03:20.957Z,101005.31
2022-11-28T16:05:49.030Z,101007.91
2022-11-28T16:08:30.653Z,101005.34
2022-11-28T16:10:59.294Z,101007.91
2022-11-28T16:13:28.802Z,101006.13
2022-11-28T16:15:58.391Z,101006.13
2022-11-28T16:18:36.939Z,101001.78
2022-11-28T16:21:04.420Z,101007.94
2022-11-28T16:23:35.690Z,101004.44
2022-11-28T16:26:19.458Z,101007.06
2022-11-28T16:29:09.734Z,101010.63
2022-11-28T16:31:36.994Z,101006.22
2022-11-28T16:34:04.465Z,101005.41
2022-11-28T16:36:37.160Z,101000.22
2022-11-28T16:39:10.359Z,100998.50
2022-11-28T16:41:43.075Z,100996.81
2022-11-28T16:44:14.873Z,100994.22
2022-11-28T16:46:54.216Z,100994.25
2022-11-28T16:49:32.557Z,100993.41
2022-11-28T16:52:21.919Z,100998.63
2022-11-28T16:54:53.011Z,100994.28
2022-11-28T16:57:20.918Z,101000.41
2022-11-28T16:59:49.387Z,101010.81
2022-11-28T17:02:19.646Z,101008.16
2022-11-28T17:04:48.982Z,101009.91
2022-11-28T17:07:18.597Z,101015.16
2022-11-28T17:09:47.474Z,101018.59
2022-11-28T17:12:28.872Z,101016.06
2022-11-28T17:14:56.458Z,101016.06
2022-11-28T17:17:30.814Z,101019.53
2022-11-28T17:20:00.555Z,101029.09
2022-11-28T17:22:43.004Z,101026.50
2022-11-28T17:25:18.965Z,101016.94
2022-11-28T17:27:48.026Z,101021.31
2022-11-28T17:30:16.849Z,101023.91
2022-11-28T17:32:44.329Z,101023.91
2022-11-28T17:35:21.918Z,101024.78
2022-11-28T17:37:53.344Z,101031.75
2022-11-28T17:40:36.692Z,101020.44
2022-11-28T17:43:04.428Z,101023.91
2022-11-28T17:45:34.267Z,101019.56
2022-11-28T17:48:01.537Z,101031.75
2022-11-28T17:50:28.805Z,101024.78
2022-11-28T17:52:56.031Z,101027.38
2022-11-28T17:55:23.276Z,101024.81
2022-11-28T17:57:52.547Z,101015.31
2022-11-28T18:00:19.909Z,101004.88
2022-11-28T18:02:47.129Z,101004.00
2022-11-28T18:05:14.392Z,101003.13
2022-11-28T18:07:41.730Z,101007.50
2022-11-28T18:10:09.886Z,101004.03
2022-11-28T18:12:38.249Z,100999.72
2022-11-28T18:15:05.758Z,101004.06
2022-11-28T18:17:33.304Z,101008.44
2022-11-28T18:20:00.523Z,101010.16
2022-11-28T18:22:27.763Z,101011.88
2022-11-28T18:24:55.026Z,101004.94
2022-11-28T18:27:22.242Z,101006.69
2022-11-28T18:29:49.446Z,101011.91
2022-11-28T18:32:24.264Z,101011.03
2022-11-28T18:34:51.623Z,101013.66
2022-11-28T18:37:18.845Z,101004.09
2022-11-28T18:39:46.414Z,101007.59
2022-11-28T18:42:13.779Z,101010.19
2022-11-28T18:44:40.979Z,101002.31
2022-11-28T18:47:08.210Z,101010.13
2022-11-28T18:49:35.404Z,101010.22
2022-11-28T18:52:02.591Z,101006.78
2022-11-28T18:54:31.080Z,101012.00
2022-11-28T18:56:58.330Z,101010.22
2022-11-28T18:59:25.663Z,101011.06
2022-11-28T19:01:52.931Z,101006.78
2022-11-28T19:04:21.477Z,101007.63
2022-11-28T19:06:48.750Z,101009.38
2022-11-28T19:09:16.626Z,101007.63
2022-11-28T19:11:44.483Z,101006.78
2022-11-28T19:14:15.946Z,101011.09
2022-11-28T19:16:45.781Z,101010.25
2022-11-28T19:19:13.067Z,101009.41
2022-11-28T19:21:40.292Z,101008.53
2022-11-28T19:24:08.506Z,101008.56
2022-11-28T19:26:37.351Z,101010.28
2022-11-28T19:29:05.171Z,101013.75
2022-11-28T19:31:37.147Z,101012.03
2022-11-28T19:34:06.827Z,101006.81
2022-11-28T19:36:36.362Z,101012.03
2022-11-28T19:39:04.844Z,101006.84
2022-11-28T19:41:32.469Z,101006.81
2022-11-28T19:44:01.074Z,101004.25
2022-11-28T19:46:35.011Z,101012.06
2022-11-28T19:49:03.932Z,101014.66
2022-11-28T19:51:31.186Z,101003.38
2022-11-28T19:54:03.176Z,101009.44
2022-11-28T19:56:32.328Z,101015.47
2022-11-28T19:58:59.861Z,101020.69
2022-11-28T20:01:27.992Z,101012.88
2022-11-28T20:03:55.379Z,101005.91
2022-11-28T20:06:29.105Z,101013.78
2022-11-28T20:09:02.600Z,101016.41
2022-11-28T20:11:32.976Z,101016.41
2022-11-28T20:14:06.630Z,101016.34
2022-11-28T20:16:38.562Z,101021.59
2022-11-28T20:19:06.780Z,101022.47
2022-11-28T20:21:35.512Z,101031.13
2022-11-28T20:24:08.270Z,101020.72
2022-11-28T20:26:39.565Z,101021.63
2022-11-28T20:29:07.690Z,101028.53
2022-11-28T20:31:45.832Z,101026.75
2022-11-28T20:34:16.209Z,101030.28
2022-11-28T20:36:44.024Z,101033.75
2022-11-28T20:39:12.956Z,101033.72
2022-11-28T20:41:40.301Z,101032.88
2022-11-28T20:44:12.303Z,101033.75
2022-11-28T20:46:39.953Z,101038.94
2022-11-28T20:49:10.814Z,101034.56
2022-11-28T20:51:38.189Z,101033.72
2022-11-28T20:54:06.948Z,101028.50
2022-11-28T20:57:05.152Z,101029.34
2022-11-28T20:59:26.644Z,101025.88
2022-11-28T21:01:54.071Z,101018.09
2022-11-28T21:04:21.497Z,101028.50
2022-11-28T21:06:49.320Z,101022.44
2022-11-28T21:09:19.689Z,101021.63
2022-11-28T21:11:58.123Z,101018.13
2022-11-28T21:14:26.964Z,101028.56
2022-11-28T21:16:54.351Z,101028.53
2022-11-28T21:19:21.848Z,101028.53
2022-11-28T21:21:49.222Z,101023.31
2022-11-28T21:24:19.633Z,101024.22
2022-11-28T21:26:52.919Z,101021.59
2022-11-28T21:29:21.678Z,101018.94
2022-11-28T21:31:49.413Z,101025.91
2022-11-28T21:34:17.730Z,101020.69
2022-11-28T21:36:45.916Z,101024.19
2022-11-28T21:39:14.886Z,101022.47
2022-11-28T21:41:42.248Z,101022.50
2022-11-28T21:44:09.815Z,101019.00
2022-11-28T21:46:37.013Z,101019.03
2022-11-28T21:49:04.264Z,101019.03
2022-11-28T21:51:32.725Z,101020.78
2022-11-28T21:53:59.970Z,101018.19
2022-11-28T21:56:27.235Z,101019.91
2022-11-28T21:58:54.544Z,101015.59
2022-11-28T22:01:22.173Z,101016.44
2022-11-28T22:03:49.481Z,101023.38
2022-11-28T22:06:20.203Z,101026.84
2022-11-28T22:08:48.727Z,101021.63
2022-11-28T22:11:17.348Z,101029.44
2022-11-28T22:13:46.157Z,101024.25
2022-11-28T22:16:21.287Z,101017.31
2022-11-28T22:18:49.684Z,101021.63
2022-11-28T22:24:04.509Z,101029.44
2022-11-28T22:26:32.063Z,101025.09
2022-11-28T22:28:59.334Z,101025.94
2022-11-28T22:31:26.816Z,101021.59
2022-11-28T22:33:54.053Z,101032.91
2022-11-28T22:36:22.439Z,101026.81
2022-11-28T22:38:53.856Z,101027.72
2022-11-28T22:41:28.444Z,101022.50
2022-11-28T22:43:59.559Z,101018.97
2022-11-28T22:46:29.177Z,101023.28
2022-11-28T22:48:56.475Z,101021.59
2022-11-28T22:51:25.677Z,101015.56
2022-11-28T22:53:54.430Z,101022.50
2022-11-28T22:56:21.994Z,101020.75
2022-11-28T22:58:49.445Z,101018.16
2022-11-28T23:01:28.546Z,101015.56
2022-11-28T23:03:55.969Z,101019.88
2022-11-28T23:06:25.682Z,101027.69
2022-11-28T23:08:53.424Z,101033.81
2022-11-28T23:11:25.815Z,101028.59
2022-11-28T23:13:53.531Z,101026.00
2022-11-28T23:16:26.617Z,101028.59
2022-11-28T23:18:56.232Z,101019.03
2022-11-28T23:21:24.829Z,101026.84
2022-11-28T23:23:53.205Z,101029.47
2022-11-28T23:26:23.056Z,101028.63
2022-11-28T23:28:50.478Z,101023.44
2022-11-28T23:31:20.113Z,101034.75
2022-11-28T23:33:48.221Z,101037.31
2022-11-28T23:36:29.786Z,101032.13
2022-11-28T23:38:59.761Z,101031.25
2022-11-28T23:41:28.239Z,101036.47
2022-11-28T23:43:55.428Z,101030.38
2022-11-28T23:46:23.496Z,101030.38
2022-11-28T23:48:50.975Z,101033.84
2022-11-28T23:51:20.075Z,101034.75
2022-11-28T23:53:47.295Z,101032.13
2022-11-28T23:56:17.100Z,101030.38
2022-11-28T23:58:44.610Z,101026.91
